Terminal Aerodrome Forecast
Issued by NWS

Home | Current Version | Previous Version | Text Only | Print | Product List | Glossary On
Versions: 1 2 3 4 5 6 7 8 9 10 11 12 13 14 15 16 17
000
FTUS45 KTFX 272342
TAFGTF
TAF
KGTF 272342Z 2800/2824 35010KT P6SM -SHRA SCT015 BKN050
      TEMPO 2800/2803 6SM -RA BR BKN020
     FM280300 28008KT P6SM SCT020 OVC050
     FM280700 25008KT P6SM VCSH BKN020
     FM281800 35010KT P6SM VCSH SCT025 BKN040=

USA.gov is the U.S. government's official web portal to all federal, state and local government web resources and services.